Time;durP1;ratioP1;P1;durP2;ratioP2;P2;SDS_P1;SDS_P2;PMS_P1;PMS_P2;Temp;Humidity;BMP_temperature;BMP_pressure;BME280_temperature;BME280_humidity;BME280_pressure;Samples;Min_cycle;Max_cycle;Signal;HPM_P1;HPM_P2
2022/08/19 01:45:47;;;;;;;3.13;1.40;;;15.50;99.90;;;;;;6261620;22;20123;-89
2022/08/19 01:48:14;;;;;;;3.60;1.55;;;15.40;99.90;;;;;;6223979;22;20024;-88
2022/08/19 01:50:40;;;;;;;3.40;1.40;;;15.40;99.90;;;;;;6248914;22;20012;-89
2022/08/19 01:53:09;;;;;;;2.30;0.70;;;15.30;99.90;;;;;;6223622;22;20020;-88
2022/08/19 01:55:38;;;;;;;1.85;0.70;;;15.30;99.90;;;;;;6248511;22;20026;-89
2022/08/19 01:58:07;;;;;;;2.35;0.90;;;15.30;99.90;;;;;;6223777;22;20024;-89
2022/08/19 02:00:33;;;;;;;3.22;0.80;;;15.20;99.90;;;;;;6249270;22;20384;-88
2022/08/19 02:03:02;;;;;;;2.05;0.70;;;15.20;99.90;;;;;;6223492;22;20086;-88
2022/08/19 02:05:29;;;;;;;2.15;0.75;;;15.20;99.90;;;;;;6223556;22;20084;-88
2022/08/19 02:07:56;;;;;;;1.45;0.60;;;15.20;99.90;;;;;;6223370;22;20023;-93
2022/08/19 02:10:22;;;;;;;2.40;0.82;;;15.20;99.90;;;;;;6224141;22;20023;-92
2022/08/19 02:12:52;;;;;;;3.47;1.17;;;15.30;99.90;;;;;;6223550;22;20024;-87
2022/08/19 02:15:19;;;;;;;3.10;1.00;;;15.30;99.90;;;;;;6223946;22;20102;-88
2022/08/19 02:17:45;;;;;;;2.67;0.93;;;15.30;99.90;;;;;;6224002;22;20030;-90
2022/08/19 02:20:12;;;;;;;3.13;1.10;;;15.30;99.90;;;;;;6223593;22;20020;-88
2022/08/19 02:22:41;;;;;;;2.83;1.05;;;15.30;99.90;;;;;;6275945;22;20098;-88
2022/08/19 02:25:07;;;;;;;2.90;1.10;;;15.30;99.90;;;;;;6275811;22;20034;-91
2022/08/19 02:27:33;;;;;;;;;;;15.30;99.90;;;;;;6224098;22;20016;-91
2022/08/19 02:29:59;;;;;;;4.93;1.73;;;15.30;99.90;;;;;;6223756;22;19922;-89
2022/08/19 02:32:28;;;;;;;3.85;1.52;;;15.30;99.90;;;;;;6250290;22;20020;-92
2022/08/19 02:35:11;;;;;;;4.45;2.00;;;15.30;99.90;;;;;;6225157;22;20047;-89
2022/08/19 02:40:21;;;;;;;3.92;1.73;;;15.30;99.90;;;;;;6250294;22;20026;-89
2022/08/19 02:42:47;;;;;;;4.75;1.42;;;15.40;99.90;;;;;;6225265;22;20020;-91
2022/08/19 02:45:14;;;;;;;3.38;1.10;;;15.30;99.90;;;;;;6224790;22;20019;-88
2022/08/19 02:47:40;;;;;;;1.90;0.70;;;15.30;99.90;;;;;;6225329;22;20023;-93
2022/08/19 02:50:06;;;;;;;1.52;0.70;;;15.20;99.90;;;;;;6225285;22;20022;-89
2022/08/19 02:52:33;;;;;;;3.85;1.40;;;15.20;99.90;;;;;;6250258;22;20027;-88
2022/08/19 02:54:59;;;;;;;3.20;1.17;;;15.20;99.90;;;;;;6225161;22;20055;-89
2022/08/19 02:57:26;;;;;;;4.00;1.40;;;15.20;99.90;;;;;;6250152;22;20487;-89
2022/08/19 02:59:52;;;;;;;5.47;2.50;;;15.20;99.90;;;;;;6250625;22;20019;-92
2022/08/19 03:02:18;;;;;;;;;;;15.20;99.90;;;;;;6278298;22;20019;-87
2022/08/19 03:04:44;;;;;;;5.75;2.25;;;15.20;99.90;;;;;;6225684;22;19964;-90
2022/08/19 03:07:14;;;;;;;5.03;2.25;;;15.20;99.90;;;;;;6250485;22;20517;-87
2022/08/19 03:09:39;;;;;;;4.40;2.00;;;15.20;99.90;;;;;;6250500;22;20012;-93
2022/08/19 03:12:14;;;;;;;5.13;2.20;;;15.20;99.90;;;;;;6225842;22;20098;-88
2022/08/19 03:14:40;;;;;;;4.82;2.15;;;15.10;99.90;;;;;;6249692;22;20322;-91
2022/08/19 03:17:07;;;;;;;6.95;2.33;;;15.10;99.90;;;;;;6224592;22;20373;-88
2022/08/19 03:19:33;;;;;;;6.18;2.72;;;15.10;99.90;;;;;;6249769;22;20340;-88
2022/08/19 03:21:59;;;;;;;6.53;3.10;;;15.10;99.90;;;;;;6249883;22;20051;-88
2022/08/19 03:24:25;;;;;;;4.90;2.15;;;15.10;99.90;;;;;;6249590;22;20020;-87
2022/08/19 03:27:22;;;;;;;6.53;2.53;;;15.10;99.90;;;;;;6277324;22;20078;-88
2022/08/19 03:33:13;;;;;;;6.03;3.08;;;15.20;99.90;;;;;;6292726;22;20031;-96
2022/08/19 03:35:39;;;;;;;5.00;2.05;;;15.10;99.90;;;;;;6243835;22;20453;-93
2022/08/19 03:38:07;;;;;;;6.00;2.60;;;15.10;99.90;;;;;;6244819;22;20042;-96
2022/08/19 03:40:36;;;;;;;6.20;2.63;;;15.10;99.90;;;;;;6224381;22;20008;-95
2022/08/19 03:43:02;;;;;;;6.60;2.60;;;15.10;99.90;;;;;;6247130;22;20008;-94
2022/08/19 03:45:28;;;;;;;6.75;2.42;;;15.10;99.90;;;;;;6248304;22;20058;-92
2022/08/19 03:47:56;;;;;;;;;;;15.10;99.90;;;;;;6247170;22;20054;-96
2022/08/19 03:50:21;;;;;;;5.32;2.67;;;15.10;99.90;;;;;;6234157;22;20332;-94
2022/08/19 03:52:51;;;;;;;6.35;3.03;;;15.10;99.90;;;;;;6228481;22;20024;-96
2022/08/19 04:45:45;;;;;;;3.22;1.15;;;15.00;99.90;;;;;;6268939;22;20424;-94
2022/08/19 04:48:12;;;;;;;4.35;1.65;;;15.10;99.90;;;;;;6225083;22;20445;-95
2022/08/19 04:50:41;;;;;;;;;;;15.10;99.90;;;;;;6225914;22;20016;-93
2022/08/19 05:29:25;;;;;;;7.10;3.20;;;15.70;99.90;;;;;;6326866;22;20031;-88
2022/08/19 05:31:52;;;;;;;8.63;3.28;;;15.70;99.90;;;;;;6285614;22;20014;-95
2022/08/19 05:34:21;;;;;;;8.13;3.67;;;15.80;99.90;;;;;;6285966;22;20059;-88
2022/08/19 05:36:49;;;;;;;7.05;3.15;;;15.80;99.90;;;;;;6311954;22;20019;-89
2022/08/19 05:39:19;;;;;;;7.93;3.67;;;15.90;99.90;;;;;;6311615;22;20069;-96
2022/08/19 05:41:58;;;;;;;7.88;3.38;;;15.90;99.90;;;;;;6311380;22;20069;-91
2022/08/19 05:44:25;;;;;;;8.52;3.42;;;16.00;99.90;;;;;;6285919;22;20022;-96
2022/08/19 05:46:54;;;;;;;8.20;3.88;;;16.00;99.90;;;;;;6285653;22;20122;-88
2022/08/19 05:49:22;;;;;;;7.05;3.33;;;16.10;99.90;;;;;;6285723;22;20015;-89
2022/08/19 05:51:49;;;;;;;7.10;3.55;;;16.10;99.90;;;;;;6285694;22;20072;-93
2022/08/19 05:54:14;;;;;;;6.75;3.17;;;16.20;99.90;;;;;;6311567;22;20038;-94
2022/08/19 06:14:50;;;;;;;7.55;3.55;;;18.00;99.90;;;;;;6339308;22;20019;-88
2022/08/19 06:17:16;;;;;;;6.10;3.00;;;18.50;99.90;;;;;;6313317;22;20050;-87
2022/08/19 06:19:43;;;;;;;6.03;3.13;;;18.80;99.90;;;;;;6341179;22;20014;-96
2022/08/19 06:22:11;;;;;;;7.07;2.75;;;18.80;99.90;;;;;;6314776;22;20023;-88
2022/08/19 06:24:37;;;;;;;6.10;2.90;;;18.80;99.90;;;;;;6312888;22;20097;-91
2022/08/19 06:32:16;;;;;;;5.70;2.70;;;18.70;99.90;;;;;;6275983;22;20024;-96
2022/08/19 06:34:43;;;;;;;6.43;3.10;;;18.70;99.90;;;;;;6253260;22;20047;-96
2022/08/19 10:58:17;;;;;;;7.95;4.40;;;23.90;99.90;;;;;;6307797;22;20019;-95
2022/08/19 11:00:53;;;;;;;7.18;4.43;;;24.00;99.90;;;;;;6292534;22;20015;-93
2022/08/19 13:56:16;;;;;;;11.07;6.72;;;23.20;99.90;;;;;;6319765;22;20023;-87
2022/08/19 13:58:43;;;;;;;12.77;6.97;;;23.20;99.90;;;;;;6307469;22;20019;-90
2022/08/19 14:01:09;;;;;;;10.98;6.30;;;23.20;99.90;;;;;;6306002;22;20077;-86
2022/08/19 14:03:35;;;;;;;11.07;6.30;;;23.20;99.90;;;;;;6305922;22;20448;-87
2022/08/19 14:06:01;;;;;;;12.55;6.20;;;23.30;99.90;;;;;;6305549;22;20031;-89
2022/08/19 14:08:27;;;;;;;;;;;23.30;99.90;;;;;;6306336;22;20019;-90
2022/08/19 14:10:56;;;;;;;10.93;6.28;;;23.20;99.90;;;;;;6305655;22;19915;-88
2022/08/19 14:13:23;;;;;;;11.05;6.30;;;23.20;99.90;;;;;;6279957;22;20062;-86
2022/08/19 14:15:49;;;;;;;11.38;7.05;;;23.30;99.90;;;;;;6307294;22;20073;-89
2022/08/19 14:18:17;;;;;;;12.43;6.38;;;23.30;99.90;;;;;;6305651;22;20017;-86
2022/08/19 14:20:44;;;;;;;11.10;6.60;;;23.30;99.90;;;;;;6307163;22;20049;-87
2022/08/19 14:23:11;;;;;;;11.02;6.80;;;23.30;99.90;;;;;;6305591;22;20026;-88
2022/08/19 14:25:37;;;;;;;10.55;6.65;;;23.30;99.90;;;;;;6305567;22;20078;-89
2022/08/19 14:28:03;;;;;;;;;;;23.30;99.90;;;;;;6309373;22;20038;-91
2022/08/19 14:30:33;;;;;;;11.23;6.38;;;23.50;99.90;;;;;;6307623;22;20302;-86
2022/08/19 14:33:01;;;;;;;13.50;6.40;;;23.60;99.90;;;;;;6307676;22;20027;-89
2022/08/19 14:35:28;;;;;;;9.25;5.68;;;23.60;99.90;;;;;;6309293;22;20060;-91
2022/08/19 14:37:55;;;;;;;11.80;6.65;;;23.70;99.90;;;;;;6281730;22;20026;-88
2022/08/19 14:40:26;;;;;;;10.70;5.50;;;23.80;99.90;;;;;;6307379;22;20094;-89
2022/08/19 14:42:58;;;;;;;11.32;6.15;;;23.80;99.90;;;;;;6307471;22;20066;-88
2022/08/19 14:45:25;;;;;;;9.60;6.03;;;23.70;99.90;;;;;;6307591;22;20058;-91
2022/08/19 14:47:51;;;;;;;10.73;5.78;;;23.70;99.90;;;;;;6309142;22;20019;-88
2022/08/19 14:50:16;;;;;;;;;;;23.70;99.90;;;;;;6307945;22;20019;-91
2022/08/19 15:23:26;;;;;;;11.27;5.70;;;23.70;99.90;;;;;;6303754;22;20031;-87
2022/08/19 15:25:54;;;;;;;9.73;5.78;;;23.70;99.90;;;;;;6274873;22;20030;-90
2022/08/19 15:28:21;;;;;;;10.15;5.40;;;23.70;99.90;;;;;;6306828;22;20023;-90
2022/08/19 15:30:47;;;;;;;8.82;5.30;;;23.60;99.90;;;;;;6306765;22;20098;-89
2022/08/19 15:33:14;;;;;;;;;;;23.60;99.90;;;;;;6281390;22;20058;-87
2022/08/19 15:35:41;;;;;;;9.77;5.17;;;23.60;99.90;;;;;;6306602;22;19915;-88
2022/08/19 17:28:58;;;;;;;12.00;5.70;;;22.00;99.90;;;;;;6248368;22;20090;-90
2022/08/19 17:31:26;;;;;;;10.95;6.25;;;22.00;99.90;;;;;;6223747;22;20027;-89
2022/08/19 17:33:52;;;;;;;12.25;6.00;;;21.90;99.90;;;;;;6250014;22;20019;-88
2022/08/19 17:36:22;;;;;;;11.48;6.15;;;21.90;99.90;;;;;;6224426;22;20019;-93
2022/08/19 17:38:50;;;;;;;10.98;6.60;;;21.90;99.90;;;;;;6224361;22;20125;-93
2022/08/19 17:41:39;;;;;;;12.68;6.07;;;21.90;99.90;;;;;;6224688;22;20023;-91
2022/08/19 17:44:05;;;;;;;12.45;6.60;;;21.90;99.90;;;;;;6222555;22;20038;-88
2022/08/19 17:46:33;;;;;;;10.00;5.88;;;21.90;99.90;;;;;;6249682;22;20020;-89
2022/08/19 17:48:59;;;;;;;12.00;6.40;;;21.90;99.90;;;;;;6250023;22;20476;-89
2022/08/19 17:51:45;;;;;;;11.80;6.55;;;21.90;99.90;;;;;;6278843;22;20412;-92
2022/08/19 17:54:14;;;;;;;11.60;6.32;;;21.90;99.90;;;;;;6225130;22;20019;-93
2022/08/19 17:56:40;;;;;;;10.60;6.28;;;21.90;99.90;;;;;;6251921;22;20023;-96
2022/08/19 17:59:06;;;;;;;12.35;5.82;;;21.90;99.90;;;;;;6251473;22;20024;-92
2022/08/19 18:01:32;;;;;;;;;;;21.90;99.90;;;;;;6279587;22;20024;-94
2022/08/19 18:03:58;;;;;;;10.32;5.60;;;21.80;99.90;;;;;;6252291;22;19994;-94
2022/08/19 18:06:24;;;;;;;11.60;5.90;;;21.80;99.90;;;;;;6279405;22;20019;-92
2022/08/19 18:08:50;;;;;;;10.93;6.00;;;21.80;99.90;;;;;;6282191;22;20400;-96
2022/08/19 18:11:16;;;;;;;11.48;5.45;;;21.70;99.90;;;;;;6233954;22;20019;-93
2022/08/19 18:13:42;;;;;;;9.77;5.30;;;21.70;99.90;;;;;;6231107;22;20055;-95
2022/08/19 18:16:09;;;;;;;11.15;6.03;;;21.60;99.90;;;;;;6253780;22;20015;-96
2022/08/19 18:18:38;;;;;;;11.82;6.20;;;21.50;99.90;;;;;;6232977;22;20047;-89
2022/08/19 18:21:04;;;;;;;12.10;6.43;;;21.50;99.90;;;;;;6256814;22;20027;-94
2022/08/19 18:23:30;;;;;;;12.65;6.10;;;21.50;99.90;;;;;;6252032;22;20020;-96
2022/08/19 18:25:56;;;;;;;;;;;21.50;99.90;;;;;;6252133;22;20039;-91
2022/08/19 18:28:23;;;;;;;13.02;6.50;;;21.60;99.90;;;;;;6226969;22;19923;-96
2022/08/19 18:30:48;;;;;;;11.45;5.80;;;21.50;99.90;;;;;;6293771;22;20344;-92
2022/08/19 18:33:14;;;;;;;10.48;5.30;;;21.50;99.90;;;;;;6310624;22;20076;-88
2022/08/19 18:35:47;;;;;;;11.32;5.88;;;21.50;99.90;;;;;;6308343;22;20507;-89
2022/08/19 18:49:21;;;;;;;13.02;6.07;;;21.50;99.90;;;;;;6310502;22;20043;-96
2022/08/19 18:51:49;;;;;;;11.35;5.80;;;21.50;99.90;;;;;;6308173;22;20456;-93
2022/08/19 18:54:16;;;;;;;12.07;6.70;;;21.50;99.90;;;;;;6307809;22;20020;-90
2022/08/19 18:56:43;;;;;;;14.65;6.72;;;21.50;99.90;;;;;;6307671;22;20023;-95
2022/08/19 18:59:11;;;;;;;10.77;5.60;;;21.40;99.90;;;;;;6307574;22;20019;-91
2022/08/19 19:01:45;;;;;;;10.20;6.05;;;21.40;99.90;;;;;;6281919;22;20054;-89
2022/08/19 19:04:10;;;;;;;10.57;5.85;;;21.40;99.90;;;;;;6307329;22;20598;-89
2022/08/19 19:06:39;;;;;;;8.90;5.30;;;21.40;99.90;;;;;;6307651;22;20026;-92
2022/08/19 19:09:07;;;;;;;10.25;5.75;;;21.30;99.90;;;;;;6307703;22;20027;-91
2022/08/19 19:11:36;;;;;;;10.00;5.32;;;21.30;99.90;;;;;;6282445;22;20460;-91
2022/08/19 19:14:09;;;;;;;9.05;4.90;;;21.30;99.90;;;;;;6308564;22;20487;-90
2022/08/19 19:16:39;;;;;;;11.10;5.47;;;21.30;99.90;;;;;;6307847;22;20069;-96
2022/08/19 19:19:11;;;;;;;9.65;5.00;;;21.30;99.90;;;;;;6310379;22;20318;-93
2022/08/19 19:21:46;;;;;;;9.75;5.28;;;21.30;99.90;;;;;;6308207;22;20011;-96
2022/08/19 19:24:14;;;;;;;9.18;4.85;;;21.20;99.90;;;;;;6309485;22;20016;-89
2022/08/19 19:26:41;;;;;;;9.65;5.40;;;21.20;99.90;;;;;;6307994;22;20023;-93
2022/08/19 19:29:06;;;;;;;9.20;5.28;;;21.30;99.90;;;;;;6307143;22;20019;-90
2022/08/19 19:31:32;;;;;;;9.38;5.00;;;21.30;99.90;;;;;;6308338;22;20038;-88
2022/08/19 19:33:59;;;;;;;8.43;5.05;;;21.20;99.90;;;;;;6308687;22;20521;-87
2022/08/19 19:36:25;;;;;;;8.13;4.97;;;21.20;99.90;;;;;;6306991;22;20073;-87
2022/08/19 19:38:51;;;;;;;7.63;4.47;;;21.20;99.90;;;;;;6281723;22;20011;-89
2022/08/19 19:41:22;;;;;;;8.60;4.65;;;21.20;99.90;;;;;;6308199;22;20390;-91
2022/08/19 19:43:57;;;;;;;8.13;4.30;;;21.10;99.90;;;;;;6307037;22;20459;-90
2022/08/19 19:46:23;;;;;;;8.27;4.25;;;21.10;99.90;;;;;;6308378;22;20037;-90
2022/08/19 19:48:49;;;;;;;7.50;4.28;;;21.10;99.90;;;;;;6308714;22;20011;-91
2022/08/19 19:51:15;;;;;;;6.35;4.10;;;21.00;99.90;;;;;;6308223;22;20016;-88
2022/08/19 19:53:41;;;;;;;8.20;4.50;;;21.00;99.90;;;;;;6307282;22;20026;-92
2022/08/19 19:56:08;;;;;;;8.70;5.07;;;21.00;99.90;;;;;;6281714;22;20045;-93
2022/08/19 19:58:35;;;;;;;6.75;4.00;;;20.90;99.90;;;;;;6307710;22;20026;-93
2022/08/19 20:01:02;;;;;;;8.60;4.30;;;20.90;99.90;;;;;;6306401;22;20113;-92
2022/08/19 20:03:29;;;;;;;8.68;4.32;;;20.80;99.90;;;;;;6307245;22;20019;-88
2022/08/19 20:05:57;;;;;;;;;;;20.80;99.90;;;;;;6307256;22;20019;-91
2022/08/19 20:11:06;;;;;;;9.25;5.30;;;20.70;99.90;;;;;;6305547;22;20019;-90
2022/08/19 20:13:33;;;;;;;7.32;4.25;;;20.80;99.90;;;;;;6281006;22;20111;-89
2022/08/19 20:16:02;;;;;;;6.93;4.18;;;20.80;99.90;;;;;;6307049;22;20023;-91
2022/08/19 20:18:29;;;;;;;6.85;3.50;;;20.80;99.90;;;;;;6307219;22;20054;-88
2022/08/19 20:20:54;;;;;;;7.95;4.85;;;20.70;99.90;;;;;;6306874;22;20094;-91
2022/08/19 20:23:21;;;;;;;7.20;3.95;;;20.80;99.90;;;;;;6281092;22;20112;-89
2022/08/19 20:25:49;;;;;;;8.15;4.28;;;20.70;99.90;;;;;;6281234;22;20027;-92
2022/08/19 20:28:16;;;;;;;7.70;4.32;;;20.70;99.90;;;;;;6307247;22;20026;-90
2022/08/19 20:30:43;;;;;;;7.25;4.07;;;20.70;99.90;;;;;;6308260;22;20021;-91
2022/08/19 20:33:09;;;;;;;8.23;4.25;;;20.70;99.90;;;;;;6308731;22;20054;-92
2022/08/19 20:35:35;;;;;;;;;;;20.70;99.90;;;;;;6312883;22;20024;-94
2022/08/19 20:38:02;;;;;;;6.82;3.97;;;20.70;99.90;;;;;;6309055;22;19989;-95
2022/08/19 20:40:28;;;;;;;7.32;4.30;;;20.70;99.90;;;;;;6307363;22;20026;-94
2022/08/19 20:42:55;;;;;;;7.60;4.90;;;20.70;99.90;;;;;;6308058;22;20065;-94
2022/08/19 20:45:22;;;;;;;7.40;4.55;;;20.60;99.90;;;;;;6307393;22;20088;-96
2022/08/19 20:47:48;;;;;;;6.85;4.00;;;20.70;99.90;;;;;;6307826;22;20022;-88
2022/08/19 20:50:15;;;;;;;7.53;4.63;;;20.60;99.90;;;;;;6307592;22;20325;-87
2022/08/19 20:52:42;;;;;;;7.97;4.88;;;20.60;99.90;;;;;;6307018;22;20064;-90
2022/08/19 20:55:09;;;;;;;6.80;3.97;;;20.60;99.90;;;;;;6305044;22;20084;-91
2022/08/19 20:57:35;;;;;;;7.72;4.68;;;20.60;99.90;;;;;;6306252;22;20020;-90
2022/08/19 21:00:04;;;;;;;;;;;20.60;99.90;;;;;;6306988;22;20023;-87
2022/08/19 21:02:30;;;;;;;8.52;4.03;;;20.60;99.90;;;;;;6306202;22;19955;-88
2022/08/19 21:04:55;;;;;;;7.28;4.65;;;20.60;99.90;;;;;;6305960;22;20057;-86
2022/08/19 21:07:21;;;;;;;7.78;4.70;;;20.60;99.90;;;;;;6306470;22;20015;-92
2022/08/19 21:09:47;;;;;;;8.25;4.85;;;20.60;99.90;;;;;;6308083;22;20503;-90
2022/08/19 21:12:13;;;;;;;7.80;4.65;;;20.60;99.90;;;;;;6306204;22;20120;-88
2022/08/19 21:14:40;;;;;;;8.18;4.72;;;20.60;99.90;;;;;;6306546;22;20026;-89
2022/08/19 21:17:06;;;;;;;9.20;4.50;;;20.60;99.90;;;;;;6306401;22;20019;-87
2022/08/19 21:19:32;;;;;;;8.27;4.30;;;20.60;99.90;;;;;;6308239;22;20025;-89
2022/08/19 21:21:59;;;;;;;8.35;4.47;;;20.50;99.90;;;;;;6305870;22;20090;-90
2022/08/19 21:24:24;;;;;;;9.10;5.00;;;20.60;99.90;;;;;;6307725;22;20098;-91
2022/08/19 21:26:50;;;;;;;7.38;4.32;;;20.60;99.90;;;;;;6306865;22;20067;-93
2022/08/19 21:29:16;;;;;;;7.28;4.53;;;20.60;99.90;;;;;;6305157;22;20019;-88
2022/08/19 21:31:42;;;;;;;7.50;4.55;;;20.50;99.90;;;;;;6307840;22;20467;-88
2022/08/19 21:34:08;;;;;;;9.98;5.10;;;20.60;99.90;;;;;;6306365;22;20514;-88
2022/08/19 21:36:33;;;;;;;10.10;5.85;;;20.50;99.90;;;;;;6307130;22;20050;-89
2022/08/19 21:38:59;;;;;;;9.32;5.25;;;20.50;99.90;;;;;;6309959;22;20094;-90
2022/08/19 21:41:25;;;;;;;8.90;5.07;;;20.60;99.90;;;;;;6308695;22;20019;-92
2022/08/19 21:43:51;;;;;;;8.15;5.07;;;20.50;99.90;;;;;;6310031;22;20399;-88
2022/08/19 21:46:16;;;;;;;7.70;4.60;;;20.50;99.90;;;;;;6309623;22;20026;-91
2022/08/19 21:48:42;;;;;;;7.50;4.60;;;20.50;99.90;;;;;;6307419;22;20023;-92
2022/08/19 21:51:08;;;;;;;7.53;4.63;;;20.50;99.90;;;;;;6308790;22;20364;-93
2022/08/19 21:53:34;;;;;;;8.07;4.88;;;20.60;99.90;;;;;;6310147;22;20023;-88
2022/08/19 21:56:00;;;;;;;;;;;20.50;99.90;;;;;;6308909;22;20045;-91
2022/08/19 21:58:26;;;;;;;8.05;4.28;;;20.50;99.90;;;;;;6308603;22;19936;-93
2022/08/19 22:00:52;;;;;;;9.05;5.20;;;20.50;99.90;;;;;;6308542;22;20102;-93
2022/08/19 22:03:18;;;;;;;8.15;4.93;;;20.50;99.90;;;;;;6308624;22;20019;-92
2022/08/19 22:05:44;;;;;;;8.98;4.93;;;20.50;99.90;;;;;;6308899;22;20026;-95
2022/08/19 22:08:09;;;;;;;8.75;4.90;;;20.50;99.90;;;;;;6308725;22;20015;-94
2022/08/19 22:10:36;;;;;;;7.85;4.63;;;20.50;99.90;;;;;;6308477;22;20027;-90
2022/08/19 22:13:02;;;;;;;10.55;5.30;;;20.50;99.90;;;;;;6308065;22;20023;-88
2022/08/19 22:15:30;;;;;;;7.35;4.47;;;20.50;99.90;;;;;;6309408;22;20016;-90
2022/08/19 22:17:57;;;;;;;7.40;4.05;;;20.40;99.90;;;;;;6309283;22;20021;-88
2022/08/19 22:20:26;;;;;;;6.75;3.95;;;20.40;99.90;;;;;;6308138;22;20073;-93
2022/08/19 22:22:57;;;;;;;8.15;4.53;;;20.40;99.90;;;;;;6309723;22;20019;-92
2022/08/19 22:25:29;;;;;;;7.93;4.03;;;20.40;99.90;;;;;;6308222;22;20065;-92
2022/08/19 22:27:56;;;;;;;7.45;4.57;;;20.40;99.90;;;;;;6307809;22;20023;-89
2022/08/19 22:30:23;;;;;;;8.85;5.13;;;20.40;99.90;;;;;;6307717;22;20030;-90
2022/08/19 22:32:58;;;;;;;9.10;4.57;;;20.30;99.90;;;;;;6308453;22;20038;-91
2022/08/19 22:35:24;;;;;;;7.53;4.40;;;20.30;99.90;;;;;;6309793;22;20438;-92
2022/08/19 22:37:50;;;;;;;7.22;4.25;;;20.30;99.90;;;;;;6307992;22;20059;-90
2022/08/19 22:40:17;;;;;;;7.53;4.05;;;20.30;99.90;;;;;;6307878;22;20019;-92
2022/08/19 22:42:45;;;;;;;7.43;3.85;;;20.20;99.90;;;;;;6308549;22;20072;-89
2022/08/19 22:45:14;;;;;;;6.75;3.63;;;20.20;99.90;;;;;;6279082;22;20050;-94
2022/08/19 22:47:40;;;;;;;6.05;3.47;;;20.20;99.90;;;;;;6304489;22;20019;-88
2022/08/19 22:50:07;;;;;;;6.07;3.50;;;20.20;99.90;;;;;;6305462;22;20503;-88
2022/08/19 22:52:33;;;;;;;7.63;3.67;;;20.20;99.90;;;;;;6279632;22;20026;-90
2022/08/19 22:55:02;;;;;;;6.80;3.38;;;20.10;99.90;;;;;;6307088;22;20019;-92
2022/08/19 22:57:28;;;;;;;5.93;3.25;;;20.10;99.90;;;;;;6307504;22;20461;-89
2022/08/19 22:59:56;;;;;;;6.30;3.22;;;20.10;99.90;;;;;;6306491;22;20030;-90
2022/08/19 23:10:09;;;;;;;6.22;3.60;;;19.90;99.90;;;;;;6308435;22;20027;-88
2022/08/19 23:12:40;;;;;;;5.80;3.38;;;19.90;99.90;;;;;;6305678;22;20337;-88
2022/08/19 23:15:11;;;;;;;5.47;3.22;;;19.90;99.90;;;;;;6307154;22;20444;-88
2022/08/19 23:17:39;;;;;;;6.85;3.42;;;19.90;99.90;;;;;;6281484;22;20019;-88
2022/08/19 23:20:07;;;;;;;5.22;2.92;;;19.90;99.90;;;;;;6281290;22;20042;-87
2022/08/19 23:22:49;;;;;;;6.63;3.55;;;19.90;99.90;;;;;;6308278;22;20020;-91
2022/08/19 23:25:19;;;;;;;6.07;3.50;;;19.80;99.90;;;;;;6281501;22;20440;-89
2022/08/19 23:30:32;;;;;;;7.57;3.25;;;19.80;99.90;;;;;;6306999;22;20156;-91
2022/08/19 23:33:07;;;;;;;4.68;2.83;;;19.80;99.90;;;;;;6281652;22;20023;-90
2022/08/19 23:35:35;;;;;;;7.35;2.95;;;19.70;99.90;;;;;;6308914;22;20058;-91
2022/08/19 23:38:03;;;;;;;5.45;2.85;;;19.80;99.90;;;;;;6281435;22;20138;-91
2022/08/19 23:40:28;;;;;;;6.70;3.00;;;19.70;99.90;;;;;;6307453;22;20019;-90
2022/08/19 23:42:54;;;;;;;5.60;2.95;;;19.70;99.90;;;;;;6281551;22;20019;-90
2022/08/19 23:45:22;;;;;;;6.43;3.05;;;19.70;99.90;;;;;;6307287;22;20496;-87
2022/08/19 23:47:48;;;;;;;5.25;2.67;;;19.70;99.90;;;;;;6307019;22;20027;-87
2022/08/19 23:50:14;;;;;;;6.40;2.80;;;19.70;99.90;;;;;;6306950;22;20019;-87
2022/08/19 23:52:50;;;;;;;6.10;2.95;;;19.70;99.90;;;;;;6281281;22;20361;-91
2022/08/19 23:55:18;;;;;;;7.53;2.60;;;19.70;99.90;;;;;;6307055;22;20023;-89
2022/08/19 23:57:43;;;;;;;4.82;2.55;;;19.70;99.90;;;;;;6281176;22;20026;-91
